createdAt,value
2017-05-14T00:01:37.114Z,3.00
2017-05-14T00:04:07.871Z,2.88
2017-05-14T00:06:38.849Z,1.76
2017-05-14T00:09:09.438Z,2.70
2017-05-14T00:11:41.278Z,2.24
2017-05-14T00:14:12.393Z,3.50
2017-05-14T00:16:43.042Z,1.86
2017-05-14T00:19:14.147Z,2.64
2017-05-14T00:21:44.648Z,2.00
2017-05-14T00:24:15.546Z,3.04
2017-05-14T00:26:46.383Z,2.50
2017-05-14T00:29:16.395Z,2.00
2017-05-14T00:31:46.900Z,2.40
2017-05-14T00:34:17.746Z,3.10
2017-05-14T00:36:48.302Z,2.20
2017-05-14T00:39:19.149Z,1.66
2017-05-14T00:41:49.961Z,1.98
2017-05-14T00:44:21.507Z,1.80
2017-05-14T00:46:52.029Z,2.40
2017-05-14T00:49:22.586Z,1.80
2017-05-14T00:51:53.467Z,2.46
2017-05-14T00:54:24.635Z,4.00
2017-05-14T00:56:55.460Z,3.02
2017-05-14T00:59:26.619Z,2.12
2017-05-14T01:01:57.520Z,2.74
2017-05-14T01:04:28.352Z,3.44
2017-05-14T01:06:59.199Z,2.92
2017-05-14T01:09:30.201Z,2.60
2017-05-14T01:12:02.646Z,2.80
2017-05-14T01:14:33.532Z,5.28
2017-05-14T01:17:04.394Z,4.00
2017-05-14T01:19:35.299Z,4.32
2017-05-14T01:22:05.804Z,3.16
2017-05-14T01:24:36.433Z,5.90
2017-05-14T01:27:06.863Z,7.90
2017-05-14T01:29:38.560Z,11.10
2017-05-14T01:32:09.390Z,9.98
2017-05-14T01:34:40.024Z,8.12
2017-05-14T01:37:10.752Z,3.86
2017-05-14T01:39:41.841Z,6.96
2017-05-14T01:42:12.764Z,4.54
2017-05-14T01:44:43.812Z,4.04
2017-05-14T01:47:14.361Z,4.14
2017-05-14T01:49:45.168Z,5.54
2017-05-14T01:52:16.069Z,9.56
2017-05-14T01:54:47.028Z,7.98
2017-05-14T01:57:17.772Z,7.30
2017-05-14T01:59:48.653Z,7.20
2017-05-14T02:02:19.445Z,9.00
2017-05-14T02:04:50.129Z,7.58
2017-05-14T02:07:20.747Z,8.36
2017-05-14T02:09:51.258Z,6.88
2017-05-14T02:12:22.658Z,5.90
2017-05-14T02:14:53.684Z,6.48
2017-05-14T02:17:24.591Z,4.84
2017-05-14T02:19:55.406Z,5.30
2017-05-14T02:22:26.414Z,5.32
2017-05-14T02:24:57.216Z,6.18
2017-05-14T02:27:27.864Z,5.48
2017-05-14T02:29:59.657Z,5.64
2017-05-14T02:32:30.707Z,4.56
2017-05-14T02:35:01.705Z,6.54
2017-05-14T02:37:32.382Z,7.70
2017-05-14T02:40:03.302Z,7.50
2017-05-14T02:42:34.125Z,7.20
2017-05-14T02:45:05.725Z,5.68
2017-05-14T02:47:36.650Z,7.12
2017-05-14T02:50:07.627Z,8.52
2017-05-14T02:52:38.201Z,7.83
2017-05-14T02:55:09.078Z,6.92
2017-05-14T02:57:39.858Z,6.80
2017-05-14T03:00:10.539Z,8.08
2017-05-14T03:02:41.249Z,10.17
2017-05-14T03:05:11.833Z,8.00
2017-05-14T03:07:42.545Z,7.83
2017-05-14T03:10:13.373Z,6.52
2017-05-14T03:12:45.194Z,7.15
2017-05-14T03:15:15.924Z,6.87
2017-05-14T03:17:47.766Z,9.72
2017-05-14T03:20:18.344Z,7.27
2017-05-14T03:22:48.880Z,8.56
2017-05-14T03:25:19.864Z,9.48
2017-05-14T03:27:50.423Z,7.50
2017-05-14T03:30:21.335Z,9.85
2017-05-14T03:32:52.260Z,10.92
2017-05-14T03:35:23.193Z,10.85
2017-05-14T03:37:53.791Z,13.38
2017-05-14T03:40:24.328Z,10.68
2017-05-14T03:42:54.992Z,12.32
2017-05-14T03:45:25.888Z,12.80
2017-05-14T03:47:56.524Z,8.55
2017-05-14T03:50:27.436Z,9.96
2017-05-14T03:52:58.487Z,8.15
2017-05-14T03:55:29.120Z,9.96
2017-05-14T03:57:59.820Z,4.10
2017-05-14T04:00:31.616Z,4.32
2017-05-14T04:03:02.488Z,4.30
2017-05-14T04:05:33.470Z,1.98
2017-05-14T04:08:04.308Z,1.95
2017-05-14T04:10:35.124Z,4.42
2017-05-14T04:13:06.997Z,6.95
2017-05-14T04:15:37.822Z,1.20
2017-05-14T04:18:08.329Z,2.90
2017-05-14T04:20:39.106Z,6.80
2017-05-14T04:23:09.739Z,2.53
2017-05-14T04:25:40.705Z,4.15
2017-05-14T04:28:10.850Z,1.52
2017-05-14T04:30:41.687Z,3.13
2017-05-14T04:33:12.172Z,3.07
2017-05-14T04:35:42.905Z,3.93
2017-05-14T04:38:13.684Z,2.28
2017-05-14T04:40:44.459Z,2.52
2017-05-14T04:43:15.225Z,4.63
2017-05-14T04:45:46.415Z,10.13
2017-05-14T04:48:17.135Z,6.38
2017-05-14T04:50:48.358Z,7.15
2017-05-14T04:53:19.061Z,4.43
2017-05-14T04:55:50.029Z,5.05
2017-05-14T04:58:21.159Z,3.48
2017-05-14T05:00:52.272Z,3.98
2017-05-14T05:03:23.080Z,3.62
2017-05-14T05:05:54.137Z,5.30
2017-05-14T05:08:24.857Z,4.10
2017-05-14T05:10:55.690Z,6.08
2017-05-14T05:13:27.502Z,5.43
2017-05-14T05:15:59.281Z,6.63
2017-05-14T05:18:31.238Z,8.17
2017-05-14T05:21:02.470Z,7.33
2017-05-14T05:23:33.451Z,9.23
2017-05-14T05:26:04.507Z,6.90
2017-05-14T05:28:36.417Z,6.62
2017-05-14T05:31:07.643Z,8.38
2017-05-14T05:33:38.717Z,7.30
2017-05-14T05:36:09.309Z,4.32
2017-05-14T05:38:47.622Z,4.13
2017-05-14T05:41:18.566Z,5.18
2017-05-14T05:43:49.460Z,6.63
2017-05-14T05:46:20.572Z,5.12
2017-05-14T05:48:51.232Z,5.28
2017-05-14T05:51:22.182Z,5.52
2017-05-14T05:53:53.030Z,8.52
2017-05-14T05:56:24.308Z,12.10
2017-05-14T05:58:55.179Z,6.83
2017-05-14T06:01:25.917Z,7.85
2017-05-14T06:03:56.963Z,7.20
2017-05-14T06:06:27.747Z,7.67
2017-05-14T06:08:58.419Z,7.45
2017-05-14T06:11:29.300Z,9.60
2017-05-14T06:14:01.107Z,7.22
2017-05-14T06:16:31.972Z,11.68
2017-05-14T06:19:02.523Z,7.72
2017-05-14T06:21:33.391Z,6.05
2017-05-14T06:24:03.503Z,5.42
2017-05-14T06:26:34.350Z,6.77
2017-05-14T06:29:05.202Z,6.03
2017-05-14T06:31:36.227Z,4.82
2017-05-14T06:34:06.535Z,5.60
2017-05-14T06:36:37.484Z,5.33
2017-05-14T06:39:08.242Z,7.32
2017-05-14T06:41:39.269Z,7.52
2017-05-14T06:44:09.903Z,7.73
2017-05-14T06:46:40.520Z,9.83
2017-05-14T06:49:11.262Z,10.00
2017-05-14T06:51:41.807Z,10.23
2017-05-14T06:54:12.623Z,9.94
2017-05-14T06:56:43.611Z,12.17
2017-05-14T06:59:14.240Z,9.77
2017-05-14T07:01:45.057Z,15.08
2017-05-14T07:04:15.862Z,13.73
2017-05-14T07:06:45.974Z,6.05
2017-05-14T07:09:16.730Z,9.45
2017-05-14T07:11:48.351Z,7.05
2017-05-14T07:14:19.611Z,5.08
2017-05-14T07:16:50.329Z,6.27
2017-05-14T07:19:21.054Z,8.30
2017-05-14T07:21:51.636Z,7.50
2017-05-14T07:24:22.341Z,5.30
2017-05-14T07:26:53.351Z,10.33
2017-05-14T07:29:24.168Z,4.85
2017-05-14T07:31:54.925Z,7.22
2017-05-14T07:34:25.482Z,4.95
2017-05-14T07:36:56.237Z,5.13
2017-05-14T07:39:27.184Z,4.63
2017-05-14T07:41:57.868Z,5.55
2017-05-14T07:44:28.560Z,4.67
2017-05-14T07:46:59.356Z,4.37
2017-05-14T07:49:29.861Z,4.42
2017-05-14T07:52:00.690Z,3.83
2017-05-14T07:54:31.117Z,3.03
2017-05-14T07:57:01.837Z,3.27
2017-05-14T07:59:32.655Z,2.57
2017-05-14T08:02:03.498Z,3.50
2017-05-14T08:04:33.986Z,3.70
2017-05-14T08:07:04.783Z,5.20
2017-05-14T08:09:35.610Z,6.15
2017-05-14T08:12:06.281Z,4.10
2017-05-14T08:14:37.561Z,4.38
2017-05-14T08:17:08.500Z,4.58
2017-05-14T08:19:39.018Z,6.26
2017-05-14T08:22:09.377Z,5.86
2017-05-14T08:24:40.418Z,4.60
2017-05-14T08:27:11.134Z,5.38
2017-05-14T08:29:41.976Z,4.72
2017-05-14T08:32:12.770Z,3.97
2017-05-14T08:34:43.823Z,3.98
2017-05-14T08:37:14.276Z,4.02
2017-05-14T08:39:45.933Z,6.40
2017-05-14T08:42:16.564Z,2.93
2017-05-14T08:44:47.376Z,3.40
2017-05-14T08:47:18.155Z,4.65
2017-05-14T08:49:48.810Z,3.73
2017-05-14T08:52:19.385Z,5.32
2017-05-14T08:54:50.354Z,8.97
2017-05-14T08:57:21.073Z,11.30
2017-05-14T08:59:52.143Z,4.68
2017-05-14T09:02:22.778Z,3.62
2017-05-14T09:04:53.483Z,5.45
2017-05-14T09:07:24.415Z,4.38
2017-05-14T09:09:55.317Z,4.12
2017-05-14T09:12:26.311Z,3.15
2017-05-14T09:14:58.350Z,4.67
2017-05-14T09:17:29.878Z,3.28
2017-05-14T09:20:00.820Z,4.02
2017-05-14T09:22:31.736Z,2.60
2017-05-14T09:25:02.321Z,5.23
2017-05-14T09:27:33.091Z,3.50
2017-05-14T09:30:03.704Z,5.70
2017-05-14T09:32:34.565Z,4.62
2017-05-14T09:35:05.268Z,5.48
2017-05-14T09:37:36.190Z,5.38
2017-05-14T09:40:08.023Z,5.77
2017-05-14T09:42:38.429Z,3.33
2017-05-14T09:45:08.916Z,5.14
2017-05-14T09:47:39.685Z,7.78
2017-05-14T09:50:10.411Z,6.05
2017-05-14T09:52:41.331Z,5.55
2017-05-14T09:55:12.253Z,6.45
2017-05-14T09:57:42.922Z,5.40
2017-05-14T10:00:13.421Z,5.87
2017-05-14T10:02:44.236Z,5.93
2017-05-14T10:05:16.015Z,6.05
2017-05-14T10:07:47.082Z,6.03
2017-05-14T10:10:17.877Z,3.80
2017-05-14T10:12:48.556Z,3.70
2017-05-14T10:15:20.300Z,3.60
2017-05-14T10:17:51.387Z,3.45
2017-05-14T10:20:22.063Z,5.73
2017-05-14T10:22:53.021Z,4.40
2017-05-14T10:25:23.849Z,5.17
2017-05-14T10:27:54.699Z,3.32
2017-05-14T10:30:25.410Z,1.92
2017-05-14T10:32:56.333Z,4.07
2017-05-14T10:35:27.095Z,3.43
2017-05-14T10:37:58.146Z,2.57
2017-05-14T10:40:28.676Z,3.55
2017-05-14T10:42:59.506Z,3.40
2017-05-14T10:45:30.235Z,2.90
2017-05-14T10:48:00.839Z,3.05
2017-05-14T10:50:31.505Z,3.42
2017-05-14T10:53:02.448Z,2.62
2017-05-14T10:55:33.084Z,3.37
2017-05-14T10:58:03.725Z,1.90
2017-05-14T11:00:34.194Z,3.68
2017-05-14T11:03:05.273Z,3.52
2017-05-14T11:05:36.051Z,3.20
2017-05-14T11:08:06.665Z,3.50
2017-05-14T11:10:37.491Z,2.35
2017-05-14T11:13:07.961Z,3.47
2017-05-14T11:15:39.679Z,3.08
2017-05-14T11:18:10.019Z,4.82
2017-05-14T11:20:40.643Z,3.92
2017-05-14T11:23:11.308Z,5.27
2017-05-14T11:25:43.043Z,3.40
2017-05-14T11:28:13.640Z,4.38
2017-05-14T11:30:44.400Z,3.48
2017-05-14T11:33:15.089Z,3.72
2017-05-14T11:35:53.080Z,3.68
2017-05-14T11:38:23.969Z,6.75
2017-05-14T11:40:54.768Z,5.00
2017-05-14T11:43:25.668Z,2.58
2017-05-14T11:45:56.458Z,4.78
2017-05-14T11:48:27.399Z,2.82
2017-05-14T11:50:58.225Z,3.77
2017-05-14T11:53:30.518Z,4.43
2017-05-14T11:56:01.016Z,4.88
2017-05-14T11:58:31.904Z,4.42
2017-05-14T12:01:02.704Z,4.65
2017-05-14T12:03:33.428Z,5.58
2017-05-14T12:06:04.560Z,4.50
2017-05-14T12:08:35.120Z,4.98
2017-05-14T12:11:06.185Z,4.00
2017-05-14T12:13:36.841Z,3.42
2017-05-14T12:16:08.372Z,3.18
2017-05-14T12:18:39.180Z,4.92
2017-05-14T12:21:09.670Z,4.27
2017-05-14T12:23:40.519Z,3.73
2017-05-14T12:26:11.398Z,3.20
2017-05-14T12:28:42.394Z,4.35
2017-05-14T12:31:13.358Z,4.48
2017-05-14T12:33:43.871Z,2.68
2017-05-14T12:36:14.614Z,4.25
2017-05-14T12:38:45.267Z,8.20
2017-05-14T12:41:16.112Z,4.42
2017-05-14T12:43:46.923Z,6.30
2017-05-14T12:46:17.556Z,7.63
2017-05-14T12:48:48.371Z,3.70
2017-05-14T12:51:20.040Z,4.53
2017-05-14T12:53:50.809Z,5.05
2017-05-14T12:56:21.416Z,4.35
2017-05-14T12:58:52.499Z,6.65
2017-05-14T13:01:23.306Z,3.80
2017-05-14T13:03:54.209Z,3.38
2017-05-14T13:06:24.870Z,3.67
2017-05-14T13:08:55.515Z,4.97
2017-05-14T13:11:26.479Z,4.32
2017-05-14T13:13:57.507Z,6.52
2017-05-14T13:16:28.664Z,4.68
2017-05-14T13:18:59.211Z,4.28
2017-05-14T13:21:30.107Z,3.70
2017-05-14T13:24:00.601Z,4.18
2017-05-14T13:26:31.149Z,4.35
2017-05-14T13:29:02.264Z,4.93
2017-05-14T13:31:33.203Z,3.93
2017-05-14T13:34:03.802Z,4.37
2017-05-14T13:36:34.708Z,4.88
2017-05-14T13:39:05.656Z,4.07
2017-05-14T13:41:36.504Z,8.78
2017-05-14T13:44:07.036Z,6.90
2017-05-14T13:46:37.755Z,6.25
2017-05-14T13:49:08.611Z,4.93
2017-05-14T13:51:39.498Z,9.18
2017-05-14T13:54:10.511Z,4.05
2017-05-14T13:56:40.974Z,3.55
2017-05-14T13:59:10.952Z,3.80
2017-05-14T14:01:41.558Z,7.05
2017-05-14T14:04:12.624Z,4.57
2017-05-14T14:06:43.335Z,4.65
2017-05-14T14:09:14.214Z,3.85
2017-05-14T14:11:45.358Z,4.73
2017-05-14T14:14:16.829Z,4.78
2017-05-14T14:16:48.662Z,5.02
2017-05-14T14:19:19.177Z,3.95
2017-05-14T14:21:49.794Z,5.72
2017-05-14T14:24:20.750Z,5.32
2017-05-14T14:26:52.078Z,3.82
2017-05-14T14:29:22.833Z,4.60
2017-05-14T14:31:53.524Z,3.75
2017-05-14T14:34:24.173Z,4.74
2017-05-14T14:36:54.731Z,4.32
2017-05-14T14:39:25.411Z,12.46
2017-05-14T14:41:55.972Z,15.97
2017-05-14T14:44:26.572Z,8.72
2017-05-14T14:46:57.296Z,6.35
2017-05-14T14:49:28.546Z,7.28
2017-05-14T14:51:59.372Z,9.42
2017-05-14T14:54:30.898Z,10.03
2017-05-14T14:57:01.455Z,4.30
2017-05-14T14:59:32.624Z,4.76
2017-05-14T15:02:03.505Z,9.88
2017-05-14T15:04:34.292Z,7.66
2017-05-14T15:07:05.347Z,6.72
2017-05-14T15:09:36.029Z,6.14
2017-05-14T15:12:06.455Z,7.72
2017-05-14T15:14:38.424Z,8.18
2017-05-14T15:17:09.932Z,16.18
2017-05-14T15:19:40.680Z,7.68
2017-05-14T15:22:11.510Z,8.50
2017-05-14T15:24:42.368Z,6.56
2017-05-14T15:27:13.162Z,4.40
2017-05-14T15:29:44.092Z,5.82
2017-05-14T15:32:14.845Z,5.06
2017-05-14T15:34:45.523Z,3.70
2017-05-14T15:37:15.946Z,3.30
2017-05-14T15:39:46.696Z,3.20
2017-05-14T15:42:17.308Z,3.44
2017-05-14T15:44:48.074Z,5.08
2017-05-14T15:47:18.528Z,7.28
2017-05-14T15:49:49.288Z,5.84
2017-05-14T15:52:20.111Z,2.58
2017-05-14T15:54:50.694Z,2.42
2017-05-14T15:57:21.356Z,2.44
2017-05-14T15:59:52.322Z,3.68
2017-05-14T16:02:22.830Z,2.64
2017-05-14T16:04:53.637Z,3.12
2017-05-14T16:07:24.496Z,3.42
2017-05-14T16:09:55.203Z,3.72
2017-05-14T16:12:26.080Z,6.44
2017-05-14T16:14:56.842Z,4.72
2017-05-14T16:17:28.304Z,3.92
2017-05-14T16:19:59.251Z,4.82
2017-05-14T16:22:29.816Z,3.58
2017-05-14T16:25:00.634Z,3.40
2017-05-14T16:27:31.900Z,4.32
2017-05-14T16:30:02.891Z,5.72
2017-05-14T16:32:33.777Z,5.68
2017-05-14T16:35:04.087Z,3.62
2017-05-14T16:37:34.710Z,4.80
2017-05-14T16:40:05.719Z,4.64
2017-05-14T16:42:36.376Z,2.66
2017-05-14T16:45:07.353Z,4.86
2017-05-14T16:47:38.160Z,3.94
2017-05-14T16:50:09.296Z,5.08
2017-05-14T16:52:39.840Z,6.16
2017-05-14T16:55:11.665Z,5.32
2017-05-14T16:57:42.192Z,3.34
2017-05-14T17:00:13.222Z,4.00
2017-05-14T17:02:43.768Z,4.12
2017-05-14T17:05:14.748Z,1.52
2017-05-14T17:07:45.385Z,4.02
2017-05-14T17:10:15.998Z,3.30
2017-05-14T17:12:46.777Z,1.52
2017-05-14T17:15:17.857Z,4.52
2017-05-14T17:17:50.877Z,5.18
2017-05-14T17:20:21.926Z,5.80
2017-05-14T17:22:52.163Z,2.26
2017-05-14T17:25:22.846Z,3.70
2017-05-14T17:27:53.766Z,2.20
2017-05-14T17:30:24.381Z,2.22
2017-05-14T17:32:54.964Z,1.30
2017-05-14T17:35:26.152Z,2.86
2017-05-14T17:37:57.081Z,3.24
2017-05-14T17:40:27.891Z,3.20
2017-05-14T17:42:58.602Z,3.22
2017-05-14T17:45:29.526Z,2.68
2017-05-14T17:48:00.373Z,2.52
2017-05-14T17:50:30.907Z,1.64
2017-05-14T17:53:02.224Z,5.14
2017-05-14T17:55:33.143Z,3.20
2017-05-14T17:58:03.962Z,1.62
2017-05-14T18:00:34.759Z,3.40
2017-05-14T18:03:05.411Z,3.32
2017-05-14T18:05:36.886Z,2.82
2017-05-14T18:08:07.458Z,1.98
2017-05-14T18:10:37.959Z,2.20
2017-05-14T18:13:08.676Z,2.94
2017-05-14T18:15:39.630Z,1.72
2017-05-14T18:18:10.543Z,3.38
2017-05-14T18:20:41.660Z,1.68
2017-05-14T18:23:12.463Z,3.38
2017-05-14T18:25:43.265Z,4.40
2017-05-14T18:28:14.172Z,1.44
2017-05-14T18:30:44.989Z,1.60
2017-05-14T18:33:15.490Z,1.32
2017-05-14T18:35:46.293Z,3.66
2017-05-14T18:38:17.948Z,1.60
2017-05-14T18:40:48.988Z,1.30
2017-05-14T18:43:19.659Z,3.32
2017-05-14T18:45:50.339Z,3.38
2017-05-14T18:48:21.322Z,4.14
2017-05-14T18:50:52.227Z,2.34
2017-05-14T18:53:22.977Z,3.86
2017-05-14T18:55:54.153Z,1.32
2017-05-14T18:58:24.718Z,3.94
2017-05-14T19:00:56.358Z,2.92
2017-05-14T19:03:27.155Z,2.66
2017-05-14T19:05:58.002Z,2.50
2017-05-14T19:08:28.709Z,3.08
2017-05-14T19:10:59.295Z,2.78
2017-05-14T19:13:29.966Z,2.76
2017-05-14T19:16:00.945Z,1.76
2017-05-14T19:18:32.862Z,3.20
2017-05-14T19:21:03.805Z,1.84
2017-05-14T19:23:34.561Z,3.78
2017-05-14T19:26:05.333Z,1.80
2017-05-14T19:28:36.254Z,2.18
2017-05-14T19:31:07.303Z,3.50
2017-05-14T19:33:37.978Z,4.06
2017-05-14T19:36:09.734Z,2.42
2017-05-14T19:38:41.092Z,2.24
2017-05-14T19:41:12.254Z,1.14
2017-05-14T19:43:42.988Z,3.02
2017-05-14T19:46:13.283Z,0.92
2017-05-14T19:48:46.714Z,4.14
2017-05-14T19:51:17.578Z,4.52
2017-05-14T19:53:48.295Z,5.86
2017-05-14T19:56:18.927Z,3.08
2017-05-14T19:58:49.633Z,4.02
2017-05-14T20:01:20.567Z,2.80
2017-05-14T20:03:51.474Z,3.70
2017-05-14T20:06:22.010Z,1.88
2017-05-14T20:08:52.668Z,1.94
2017-05-14T20:11:23.334Z,2.70
2017-05-14T20:13:53.809Z,2.84
2017-05-14T20:16:24.739Z,3.36
2017-05-14T20:18:56.301Z,2.46
2017-05-14T20:21:27.048Z,2.34
2017-05-14T20:23:57.733Z,1.76
2017-05-14T20:26:28.401Z,2.24
2017-05-14T20:28:59.147Z,3.62
2017-05-14T20:31:29.871Z,3.12
2017-05-14T20:34:00.374Z,2.68
2017-05-14T20:36:30.991Z,2.62
2017-05-14T20:39:01.713Z,2.44
2017-05-14T20:41:32.800Z,3.02
2017-05-14T20:44:03.458Z,3.46
2017-05-14T20:46:34.400Z,2.26
2017-05-14T20:49:06.024Z,3.76
2017-05-14T20:51:36.817Z,1.24
2017-05-14T20:54:07.707Z,1.78
2017-05-14T20:56:38.475Z,2.12
2017-05-14T20:59:09.435Z,3.50
2017-05-14T21:01:40.344Z,4.70
2017-05-14T21:04:11.967Z,3.78
2017-05-14T21:06:43.122Z,3.40
2017-05-14T21:09:14.014Z,2.54
2017-05-14T21:11:44.814Z,2.78
2017-05-14T21:14:15.472Z,1.90
2017-05-14T21:16:46.114Z,2.70
2017-05-14T21:19:17.556Z,2.26
2017-05-14T21:21:48.489Z,1.98
2017-05-14T21:24:19.431Z,4.72
2017-05-14T21:26:50.187Z,3.90
2017-05-14T21:29:20.999Z,4.16
2017-05-14T21:31:51.732Z,4.30
2017-05-14T21:34:22.425Z,3.06
2017-05-14T21:36:53.176Z,2.30
2017-05-14T21:39:24.073Z,1.94
2017-05-14T21:41:54.646Z,3.96
2017-05-14T21:44:25.382Z,2.96
2017-05-14T21:46:56.244Z,3.40
2017-05-14T21:49:27.032Z,3.04
2017-05-14T21:51:58.051Z,2.82
2017-05-14T21:54:28.833Z,2.82
2017-05-14T21:57:00.523Z,5.06
2017-05-14T21:59:31.438Z,2.58
2017-05-14T22:02:06.028Z,3.16
2017-05-14T22:04:36.689Z,3.92
2017-05-14T22:07:07.575Z,2.92
2017-05-14T22:09:37.707Z,1.88
2017-05-14T22:12:08.744Z,3.02
2017-05-14T22:14:39.076Z,3.62
2017-05-14T22:17:09.959Z,3.26
2017-05-14T22:19:41.364Z,4.60
2017-05-14T22:22:12.227Z,4.26
2017-05-14T22:24:43.051Z,6.14
2017-05-14T22:27:13.728Z,5.50
2017-05-14T22:29:44.326Z,4.56
2017-05-14T22:32:15.177Z,5.50
2017-05-14T22:34:46.029Z,4.56
2017-05-14T22:37:16.537Z,1.86
2017-05-14T22:39:47.256Z,2.84
2017-05-14T22:42:17.996Z,2.82
2017-05-14T22:44:48.945Z,5.68
2017-05-14T22:47:20.355Z,8.04
2017-05-14T22:49:51.220Z,5.42
2017-05-14T22:52:22.064Z,5.78
2017-05-14T22:54:52.784Z,4.86
2017-05-14T22:57:23.456Z,4.10
2017-05-14T22:59:54.065Z,2.56
2017-05-14T23:02:24.904Z,5.56
2017-05-14T23:04:55.606Z,3.60
2017-05-14T23:07:26.336Z,5.28
2017-05-14T23:09:57.202Z,3.92
2017-05-14T23:12:28.975Z,6.38
2017-05-14T23:14:59.675Z,5.46
2017-05-14T23:17:30.301Z,6.94
2017-05-14T23:20:02.184Z,5.94
2017-05-14T23:22:33.655Z,4.82
2017-05-14T23:25:04.547Z,3.78
2017-05-14T23:27:35.451Z,2.96
2017-05-14T23:30:06.341Z,4.26
2017-05-14T23:32:37.366Z,3.72
2017-05-14T23:35:08.158Z,4.52
2017-05-14T23:37:38.928Z,5.14
2017-05-14T23:40:11.110Z,5.50
2017-05-14T23:42:41.687Z,2.84
2017-05-14T23:45:12.558Z,6.24
2017-05-14T23:47:43.365Z,3.28
2017-05-14T23:50:13.964Z,3.16
2017-05-14T23:52:44.995Z,3.98
2017-05-14T23:55:16.229Z,4.52
2017-05-14T23:57:47.132Z,4.26
